createdAt,value
2022-12-31T00:01:51.872Z,100079.53
2022-12-31T00:04:18.805Z,100091.47
2022-12-31T00:06:46.205Z,100092.84
2022-12-31T00:09:13.100Z,100087.00
2022-12-31T00:11:39.904Z,100101.16
2022-12-31T00:14:06.971Z,100101.47
2022-12-31T00:16:36.867Z,100116.78
2022-12-31T00:19:05.302Z,100113.13
2022-12-31T00:21:33.432Z,100112.78
2022-12-31T00:24:01.385Z,100109.25
2022-12-31T00:26:30.376Z,100121.44
2022-12-31T00:28:58.526Z,100097.81
2022-12-31T00:31:34.334Z,100099.47
2022-12-31T00:34:01.451Z,100101.47
2022-12-31T00:36:36.760Z,100119.75
2022-12-31T00:39:05.534Z,100110.47
2022-12-31T00:41:32.616Z,100099.81
2022-12-31T00:44:00.035Z,100105.31
2022-12-31T00:46:26.972Z,100122.41
2022-12-31T00:48:54.205Z,100123.75
2022-12-31T00:51:23.400Z,100132.06
2022-12-31T00:53:50.389Z,100078.81
2022-12-31T00:56:22.508Z,100125.91
2022-12-31T00:58:49.562Z,100125.91
2022-12-31T01:01:20.366Z,100127.88
2022-12-31T01:03:48.819Z,100105.28
2022-12-31T01:06:15.973Z,100109.44
2022-12-31T01:08:42.667Z,100122.75
2022-12-31T01:11:22.524Z,100111.47
2022-12-31T01:14:04.363Z,100118.44
2022-12-31T01:16:38.044Z,100127.41
2022-12-31T01:19:08.387Z,100133.19
2022-12-31T01:21:36.561Z,100102.75
2022-12-31T01:24:03.354Z,100152.97
2022-12-31T01:26:30.396Z,100140.31
2022-12-31T01:28:57.224Z,100147.28
2022-12-31T01:31:24.693Z,100135.97
2022-12-31T01:33:52.324Z,100157.91
2022-12-31T01:36:26.130Z,100126.31
2022-12-31T01:38:54.811Z,100139.63
2022-12-31T01:41:25.658Z,100152.94
2022-12-31T01:43:56.211Z,100151.25
2022-12-31T01:46:32.177Z,100151.41
2022-12-31T01:49:04.809Z,100135.94
2022-12-31T01:51:34.943Z,100138.25
2022-12-31T01:54:06.259Z,100144.25
2022-12-31T01:56:34.917Z,100063.69
2022-12-31T01:59:06.574Z,100152.94
2022-12-31T02:01:35.373Z,100123.97
2022-12-31T02:04:11.471Z,100143.56
2022-12-31T02:06:53.996Z,100156.88
2022-12-31T02:09:20.833Z,100151.38
2022-12-31T02:11:47.527Z,100138.59
2022-12-31T02:14:17.831Z,100122.59
2022-12-31T02:17:05.021Z,100144.94
2022-12-31T02:20:13.448Z,100144.25
2022-12-31T02:22:51.870Z,100137.66
2022-12-31T02:25:24.562Z,100139.63
2022-12-31T02:28:19.103Z,100146.91
2022-12-31T02:30:50.531Z,100130.22
2022-12-31T02:33:26.048Z,100153.34
2022-12-31T02:35:59.843Z,100134.56
2022-12-31T02:38:40.506Z,100133.28
2022-12-31T02:41:33.124Z,100141.91
2022-12-31T02:43:59.961Z,100130.22
2022-12-31T02:46:42.064Z,100131.69
2022-12-31T02:49:53.600Z,100141.69
2022-12-31T02:52:29.402Z,100120.88
2022-12-31T02:55:21.436Z,100130.50
2022-12-31T02:58:05.949Z,100140.16
2022-12-31T03:00:58.239Z,100119.03
2022-12-31T03:03:27.351Z,100134.16
2022-12-31T03:05:55.647Z,100130.47
2022-12-31T03:08:26.241Z,100135.25
2022-12-31T03:10:52.837Z,100133.81
2022-12-31T03:13:19.459Z,100127.47
2022-12-31T03:15:46.153Z,100115.28
2022-12-31T03:18:18.789Z,100125.47
2022-12-31T03:21:09.498Z,100081.69
2022-12-31T03:23:39.989Z,100140.06
2022-12-31T03:26:11.874Z,100079.41
2022-12-31T03:28:47.946Z,100153.47
2022-12-31T03:31:16.256Z,100129.34
2022-12-31T03:33:43.285Z,100117.06
2022-12-31T03:36:13.793Z,100102.06
2022-12-31T03:38:40.994Z,100068.66
2022-12-31T03:41:10.660Z,100117.22
2022-12-31T03:43:37.625Z,100053.81
2022-12-31T03:46:04.467Z,100111.69
2022-12-31T03:48:31.172Z,100134.50
2022-12-31T03:50:57.817Z,100139.94
2022-12-31T03:53:24.617Z,100148.28
2022-12-31T03:55:54.321Z,100141.00
2022-12-31T03:58:21.796Z,100134.97
2022-12-31T04:00:48.939Z,100145.59
2022-12-31T04:03:15.673Z,100133.59
2022-12-31T04:05:42.494Z,100137.03
2022-12-31T04:08:09.198Z,100146.41
2022-12-31T04:10:35.827Z,100148.19
2022-12-31T04:13:04.655Z,100160.69
2022-12-31T04:15:32.094Z,100162.16
2022-12-31T04:17:58.821Z,100157.84
2022-12-31T04:20:25.519Z,100158.47
2022-12-31T04:22:52.219Z,100149.81
2022-12-31T04:25:18.979Z,100162.50
2022-12-31T04:27:45.643Z,100164.75
2022-12-31T04:30:13.465Z,100176.75
2022-12-31T04:32:40.481Z,100147.44
2022-12-31T04:35:07.927Z,100148.34
2022-12-31T04:37:34.802Z,100156.50
2022-12-31T04:40:05.868Z,100136.84
2022-12-31T04:42:32.759Z,100142.97
2022-12-31T04:44:59.393Z,100141.16
2022-12-31T04:47:26.057Z,100140.16
2022-12-31T04:49:52.757Z,100148.84
2022-12-31T04:52:19.405Z,100144.22
2022-12-31T04:54:46.025Z,100093.22
2022-12-31T04:57:12.768Z,100143.47
2022-12-31T04:59:39.526Z,100086.88
2022-12-31T05:02:06.466Z,100144.16
2022-12-31T05:04:33.437Z,100106.69
2022-12-31T05:07:00.105Z,100152.47
2022-12-31T05:09:28.355Z,100164.63
2022-12-31T05:11:55.296Z,100097.41
2022-12-31T05:14:22.185Z,100107.06
2022-12-31T05:16:49.037Z,100128.09
2022-12-31T05:19:15.711Z,100128.31
2022-12-31T05:21:42.400Z,100095.84
2022-12-31T05:24:09.274Z,100100.19
2022-12-31T05:26:35.919Z,100131.63
2022-12-31T05:29:02.555Z,100116.72
2022-12-31T05:31:29.289Z,100103.38
2022-12-31T05:33:56.033Z,100119.66
2022-12-31T05:36:22.684Z,100132.47
2022-12-31T05:38:49.360Z,100119.66
2022-12-31T05:41:16.048Z,100140.59
2022-12-31T05:43:42.756Z,100142.25
2022-12-31T05:46:09.461Z,100141.28
2022-12-31T05:48:36.129Z,100134.59
2022-12-31T05:51:02.911Z,100146.94
2022-12-31T05:53:29.871Z,100150.56
2022-12-31T05:55:56.551Z,100164.19
2022-12-31T05:58:23.278Z,100155.56
2022-12-31T06:00:51.571Z,100172.00
2022-12-31T06:03:18.377Z,100166.63
2022-12-31T06:05:45.141Z,100169.19
2022-12-31T06:08:12.411Z,100158.16
2022-12-31T06:10:40.139Z,100154.88
2022-12-31T06:13:07.159Z,100140.03
2022-12-31T06:15:37.489Z,100135.16
2022-12-31T06:18:04.394Z,100171.50
2022-12-31T06:20:31.090Z,100167.94
2022-12-31T06:22:57.746Z,100159.94
2022-12-31T06:25:24.413Z,100147.16
2022-12-31T06:27:51.084Z,100192.72
2022-12-31T06:30:17.721Z,100190.00
2022-12-31T06:32:44.419Z,100121.09
2022-12-31T06:35:11.248Z,100195.06
2022-12-31T06:37:37.920Z,100193.03
2022-12-31T06:40:05.311Z,100191.56
2022-12-31T06:42:32.023Z,100148.28
2022-12-31T06:44:59.422Z,100211.75
2022-12-31T06:47:26.444Z,100175.94
2022-12-31T06:49:53.327Z,100165.44
2022-12-31T06:52:21.196Z,100182.06
2022-12-31T06:54:48.464Z,100166.06
2022-12-31T06:57:15.471Z,100180.31
2022-12-31T06:59:43.256Z,100161.97
2022-12-31T07:02:41.494Z,100192.59
2022-12-31T07:05:26.469Z,100185.63
2022-12-31T07:07:58.022Z,100176.97
2022-12-31T07:10:39.762Z,100180.63
2022-12-31T07:13:46.431Z,100190.94
2022-12-31T07:16:15.902Z,100180.31
2022-12-31T07:18:53.771Z,100158.28
2022-12-31T07:21:35.071Z,100177.91
2022-12-31T07:24:02.133Z,100197.91
2022-12-31T07:26:52.620Z,100193.44
2022-12-31T07:29:32.120Z,100183.88
2022-12-31T07:32:23.385Z,100197.06
2022-12-31T07:35:04.434Z,100196.91
2022-12-31T07:37:33.904Z,100198.75
2022-12-31T07:40:08.836Z,100173.91
2022-12-31T07:42:54.082Z,100210.19
2022-12-31T07:45:32.663Z,100202.22
2022-12-31T07:48:02.764Z,100176.06
2022-12-31T07:50:30.228Z,100203.50
2022-12-31T07:52:57.257Z,100208.81
2022-12-31T07:55:24.084Z,100207.75
2022-12-31T07:58:05.536Z,100138.78
2022-12-31T08:00:32.640Z,100175.94
2022-12-31T08:03:12.187Z,100200.91
2022-12-31T08:06:31.610Z,100191.97
2022-12-31T08:09:08.638Z,100203.56
2022-12-31T08:11:43.381Z,100222.13
2022-12-31T08:14:12.169Z,100205.19
2022-12-31T08:16:39.316Z,100192.59
2022-12-31T08:19:06.401Z,100193.44
2022-12-31T08:22:03.648Z,100207.06
2022-12-31T08:25:13.235Z,100198.94
2022-12-31T08:28:11.568Z,100180.03
2022-12-31T08:30:55.464Z,100186.38
2022-12-31T08:33:26.811Z,100181.72
2022-12-31T08:36:16.708Z,100177.09
2022-12-31T08:38:58.297Z,100179.59
2022-12-31T08:41:43.096Z,100180.13
2022-12-31T08:44:18.908Z,100187.78
2022-12-31T08:47:03.860Z,100191.25
2022-12-31T08:49:35.764Z,100193.78
2022-12-31T08:52:03.719Z,100188.13
2022-12-31T08:54:30.660Z,100186.84
2022-12-31T08:57:15.956Z,100189.16
2022-12-31T08:59:54.770Z,100188.19
2022-12-31T09:02:48.572Z,100200.03
2022-12-31T09:05:24.342Z,100190.88
2022-12-31T09:07:56.945Z,100200.22
2022-12-31T09:10:33.750Z,100128.00
2022-12-31T09:13:19.215Z,100172.84
2022-12-31T09:16:11.328Z,100193.69
2022-12-31T09:18:41.163Z,100195.38
2022-12-31T09:21:13.101Z,100190.75
2022-12-31T09:23:40.882Z,100190.94
2022-12-31T09:26:34.760Z,100185.50
2022-12-31T09:29:15.682Z,100175.22
2022-12-31T09:31:49.306Z,100169.75
2022-12-31T09:34:27.063Z,100169.59
2022-12-31T09:37:06.748Z,100165.75
2022-12-31T09:39:39.752Z,100183.94
2022-12-31T09:42:30.331Z,100191.25
2022-12-31T09:44:56.885Z,100189.28
2022-12-31T09:47:29.674Z,100185.63
2022-12-31T09:50:28.965Z,100196.94
2022-12-31T09:53:16.597Z,100205.59
2022-12-31T09:55:55.536Z,100217.69
2022-12-31T09:58:33.092Z,100220.19
2022-12-31T10:01:18.838Z,100220.50
2022-12-31T10:04:19.544Z,100253.81
2022-12-31T10:07:04.340Z,100234.53
2022-12-31T10:09:52.193Z,100244.84
2022-12-31T10:12:45.245Z,100247.03
2022-12-31T10:15:47.347Z,100244.69
2022-12-31T10:18:35.653Z,100252.03
2022-12-31T10:21:20.897Z,100251.88
2022-12-31T10:24:19.809Z,100253.22
2022-12-31T10:27:16.522Z,100248.88
2022-12-31T10:29:49.027Z,100263.50
2022-12-31T10:32:31.819Z,100273.53
2022-12-31T10:35:12.668Z,100270.53
2022-12-31T10:38:07.116Z,100262.22
2022-12-31T10:41:13.344Z,100263.88
2022-12-31T10:44:19.109Z,100262.56
2022-12-31T10:47:13.366Z,100263.91
2022-12-31T10:50:01.727Z,100275.09
2022-12-31T10:52:50.036Z,100259.13
2022-12-31T10:55:38.739Z,100247.63
2022-12-31T10:58:26.727Z,100245.63
2022-12-31T11:01:05.628Z,100244.59
2022-12-31T11:04:12.154Z,100252.59
2022-12-31T11:07:00.353Z,100259.91
2022-12-31T11:09:48.829Z,100247.75
2022-12-31T11:12:39.777Z,100242.22
2022-12-31T11:15:21.830Z,100249.06
2022-12-31T11:18:15.869Z,100226.13
2022-12-31T11:21:06.590Z,100230.59
2022-12-31T11:24:00.719Z,100267.88
2022-12-31T11:26:27.416Z,100249.22
2022-12-31T11:29:24.497Z,100251.88
2022-12-31T11:32:02.175Z,100272.88
2022-12-31T11:35:01.282Z,100199.34
2022-12-31T11:37:46.487Z,100256.53
2022-12-31T11:41:04.968Z,100245.25
2022-12-31T11:43:50.433Z,100273.53
2022-12-31T11:46:54.586Z,100258.19
2022-12-31T11:49:57.045Z,100278.66
2022-12-31T11:52:31.674Z,100266.53
2022-12-31T11:55:15.295Z,100266.84
2022-12-31T11:57:48.763Z,100281.84
2022-12-31T12:00:19.064Z,100286.88
2022-12-31T12:02:49.258Z,100263.56
2022-12-31T12:05:20.323Z,100263.22
2022-12-31T12:07:48.003Z,100287.19
2022-12-31T12:10:42.066Z,100288.56
2022-12-31T12:13:16.967Z,100264.22
2022-12-31T12:15:48.249Z,100237.28
2022-12-31T12:18:33.639Z,100258.44
2022-12-31T12:21:17.714Z,100240.97
2022-12-31T12:23:59.140Z,100273.22
2022-12-31T12:26:27.767Z,100227.81
2022-12-31T12:28:54.560Z,100240.97
2022-12-31T12:31:23.835Z,100274.72
2022-12-31T12:33:52.115Z,100248.94
2022-12-31T12:36:20.125Z,100259.75
2022-12-31T12:38:46.874Z,100241.47
2022-12-31T12:41:25.219Z,100258.06
2022-12-31T12:44:14.430Z,100271.22
2022-12-31T12:46:48.456Z,100269.56
2022-12-31T12:49:39.827Z,100263.06
2022-12-31T12:52:14.650Z,100258.59
2022-12-31T12:55:04.274Z,100256.25
2022-12-31T12:58:19.264Z,100264.59
2022-12-31T13:01:02.912Z,100279.22
2022-12-31T13:04:32.881Z,100291.56
2022-12-31T13:07:13.567Z,100284.72
2022-12-31T13:10:14.012Z,100289.06
2022-12-31T13:13:24.933Z,100285.72
2022-12-31T13:16:00.219Z,100308.22
2022-12-31T13:18:52.021Z,100301.06
2022-12-31T13:21:42.807Z,100307.53
2022-12-31T13:24:19.792Z,100307.06
2022-12-31T13:27:11.567Z,100298.56
2022-12-31T13:29:41.805Z,100294.56
2022-12-31T13:32:15.454Z,100312.84
2022-12-31T13:34:46.246Z,100311.88
2022-12-31T13:37:24.544Z,100306.53
2022-12-31T13:39:59.766Z,100279.59
2022-12-31T13:42:40.517Z,100302.38
2022-12-31T13:45:16.907Z,100297.41
2022-12-31T13:47:52.608Z,100293.72
2022-12-31T13:50:25.584Z,100315.19
2022-12-31T13:52:58.501Z,100296.38
2022-12-31T13:55:33.708Z,100318.53
2022-12-31T13:58:19.204Z,100337.50
2022-12-31T14:01:12.362Z,100296.88
2022-12-31T14:03:50.807Z,100313.53
2022-12-31T14:06:46.745Z,100321.53
2022-12-31T14:09:20.820Z,100226.97
2022-12-31T14:11:59.575Z,100337.81
2022-12-31T14:14:49.576Z,100315.53
2022-12-31T14:17:41.249Z,100323.50
2022-12-31T14:20:21.823Z,100327.84
2022-12-31T14:22:57.434Z,100328.16
2022-12-31T14:25:33.460Z,100323.88
2022-12-31T14:28:04.537Z,100320.84
2022-12-31T14:30:36.683Z,100315.19
2022-12-31T14:33:40.609Z,100335.00
2022-12-31T14:36:14.132Z,100338.66
2022-12-31T14:39:22.061Z,100324.34
2022-12-31T14:42:02.353Z,100343.50
2022-12-31T14:45:06.327Z,100357.13
2022-12-31T14:47:32.945Z,100354.00
2022-12-31T14:50:22.325Z,100354.81
2022-12-31T14:53:18.704Z,100346.47
2022-12-31T14:55:57.244Z,100338.28
2022-12-31T14:58:32.375Z,100337.63
2022-12-31T15:01:08.620Z,100354.81
2022-12-31T15:03:45.076Z,100356.78
2022-12-31T15:06:24.490Z,100365.59
2022-12-31T15:09:11.726Z,100352.44
2022-12-31T15:12:01.991Z,100358.44
2022-12-31T15:14:38.976Z,100354.28
2022-12-31T15:17:26.451Z,100358.09
2022-12-31T15:20:17.307Z,100354.44
2022-12-31T15:22:49.852Z,100354.09
2022-12-31T15:25:36.943Z,100359.59
2022-12-31T15:28:22.147Z,100345.81
2022-12-31T15:30:50.038Z,100343.47
2022-12-31T15:33:28.991Z,100351.47
2022-12-31T15:35:57.911Z,100371.59
2022-12-31T15:38:37.606Z,100360.78
2022-12-31T15:41:19.322Z,100372.28
2022-12-31T15:43:48.923Z,100387.09
2022-12-31T15:46:20.482Z,100379.28
2022-12-31T15:49:04.921Z,100374.63
2022-12-31T15:51:55.788Z,100365.78
2022-12-31T15:54:30.799Z,100401.41
2022-12-31T15:56:58.089Z,100394.75
2022-12-31T15:59:26.773Z,100384.59
2022-12-31T16:01:56.428Z,100394.75
2022-12-31T16:04:26.452Z,100409.06
2022-12-31T16:06:53.921Z,100391.75
2022-12-31T16:09:35.965Z,100400.72
2022-12-31T16:12:08.508Z,100405.38
2022-12-31T16:14:40.632Z,100297.47
2022-12-31T16:17:23.352Z,100383.28
2022-12-31T16:19:50.084Z,100381.44
2022-12-31T16:22:19.252Z,100388.25
2022-12-31T16:25:29.535Z,100385.13
2022-12-31T16:27:50.531Z,100354.97
2022-12-31T16:30:25.295Z,100372.44
2022-12-31T16:32:55.008Z,100376.44
2022-12-31T16:35:29.632Z,100379.44
2022-12-31T16:38:13.322Z,100372.44
2022-12-31T16:40:42.935Z,100352.78
2022-12-31T16:43:25.514Z,100346.47
2022-12-31T16:45:52.502Z,100363.28
2022-12-31T16:48:21.281Z,100345.81
2022-12-31T16:50:52.728Z,100363.44
2022-12-31T16:53:26.601Z,100375.78
2022-12-31T16:56:08.980Z,100346.47
2022-12-31T16:58:45.735Z,100355.13
2022-12-31T17:01:18.447Z,100338.63
2022-12-31T17:03:52.607Z,100294.81
2022-12-31T17:06:22.943Z,100352.31
2022-12-31T17:08:50.701Z,100362.28
2022-12-31T17:11:31.614Z,100372.09
2022-12-31T17:14:06.228Z,100367.63
2022-12-31T17:16:44.673Z,100358.97
2022-12-31T17:19:48.943Z,100367.63
2022-12-31T17:22:37.244Z,100318.50
2022-12-31T17:25:15.632Z,100363.78
2022-12-31T17:28:03.016Z,100327.81
2022-12-31T17:30:35.889Z,100367.75
2022-12-31T17:33:29.795Z,100357.78
2022-12-31T17:36:14.503Z,100336.13
2022-12-31T17:38:41.685Z,100355.44
2022-12-31T17:41:08.284Z,100347.47
2022-12-31T17:43:37.574Z,100331.16
2022-12-31T17:46:16.684Z,100322.50
2022-12-31T17:48:46.208Z,100334.81
2022-12-31T17:51:12.911Z,100320.50
2022-12-31T17:53:39.561Z,100329.16
2022-12-31T17:56:14.575Z,100316.50
2022-12-31T17:58:43.991Z,100313.84
2022-12-31T18:01:15.453Z,100321.81
2022-12-31T18:03:42.234Z,100325.84
2022-12-31T18:06:16.273Z,100263.22
2022-12-31T18:08:43.694Z,100328.50
2022-12-31T18:11:16.516Z,100317.00
2022-12-31T18:13:43.485Z,100333.81
2022-12-31T18:16:10.229Z,100328.00
2022-12-31T18:18:39.987Z,100338.63
2022-12-31T18:21:13.888Z,100351.63
2022-12-31T18:23:45.926Z,100338.28
2022-12-31T18:26:20.721Z,100350.78
2022-12-31T18:28:48.582Z,100336.47
2022-12-31T18:31:22.872Z,100329.50
2022-12-31T18:33:50.932Z,100335.81
2022-12-31T18:36:20.355Z,100335.16
2022-12-31T18:38:47.199Z,100308.84
2022-12-31T18:41:26.945Z,100332.00
2022-12-31T18:43:54.031Z,100301.53
2022-12-31T18:46:23.551Z,100333.81
2022-12-31T18:48:50.238Z,100314.50
2022-12-31T18:51:19.706Z,100335.50
2022-12-31T18:53:47.038Z,100331.16
2022-12-31T18:56:16.907Z,100325.16
2022-12-31T18:58:45.214Z,100332.81
2022-12-31T19:01:29.077Z,100336.47
2022-12-31T19:03:57.758Z,100322.50
2022-12-31T19:06:25.375Z,100326.50
2022-12-31T19:08:52.199Z,100301.19
2022-12-31T19:11:19.544Z,100310.00
2022-12-31T19:13:46.352Z,100322.50
2022-12-31T19:16:14.099Z,100301.19
2022-12-31T19:18:41.793Z,100331.16
2022-12-31T19:21:17.007Z,100305.69
2022-12-31T19:23:44.394Z,100323.00
2022-12-31T19:26:19.521Z,100300.53
2022-12-31T19:28:47.337Z,100332.16
2022-12-31T19:31:14.470Z,100339.16
2022-12-31T19:33:41.388Z,100327.16
2022-12-31T19:36:16.323Z,100338.50
2022-12-31T19:38:44.379Z,100339.47
2022-12-31T19:41:19.636Z,100328.34
2022-12-31T19:43:47.626Z,100334.50
2022-12-31T19:46:18.823Z,100313.84
2022-12-31T19:48:46.409Z,100330.50
2022-12-31T19:51:18.805Z,100308.53
2022-12-31T19:53:46.670Z,100344.81
2022-12-31T19:56:16.557Z,100337.81
2022-12-31T19:58:43.712Z,100336.34
2022-12-31T20:01:24.197Z,100328.16
2022-12-31T20:03:51.631Z,100334.31
2022-12-31T20:06:19.500Z,100329.50
2022-12-31T20:08:46.680Z,100318.19
2022-12-31T20:11:14.307Z,100321.69
2022-12-31T20:13:42.377Z,100300.88
2022-12-31T20:16:11.616Z,100320.84
2022-12-31T20:18:39.970Z,100318.19
2022-12-31T20:21:19.836Z,100318.88
2022-12-31T20:23:48.042Z,100301.22
2022-12-31T20:26:14.790Z,100325.19
2022-12-31T20:28:41.561Z,100265.44
2022-12-31T20:31:11.168Z,100334.84
2022-12-31T20:33:38.186Z,100327.84
2022-12-31T20:36:06.909Z,100303.72
2022-12-31T20:38:33.781Z,100338.34
2022-12-31T20:41:05.205Z,100352.16
2022-12-31T20:43:33.272Z,100342.66
2022-12-31T20:46:08.118Z,100327.16
2022-12-31T20:48:39.367Z,100318.19
2022-12-31T20:51:06.907Z,100344.50
2022-12-31T20:53:33.637Z,100359.13
2022-12-31T20:56:08.810Z,100341.69
2022-12-31T20:58:36.053Z,100368.81
2022-12-31T21:01:06.832Z,100363.16
2022-12-31T21:04:04.427Z,100380.78
2022-12-31T21:06:23.109Z,100375.44
2022-12-31T21:08:49.982Z,100378.78
2022-12-31T21:11:35.614Z,100377.47
2022-12-31T21:14:02.594Z,100361.47
2022-12-31T21:16:29.671Z,100360.47
2022-12-31T21:18:56.650Z,100385.47
2022-12-31T21:21:23.873Z,100370.94
2022-12-31T21:23:51.070Z,100379.94
2022-12-31T21:26:17.860Z,100360.28
2022-12-31T21:28:45.186Z,100359.13
2022-12-31T21:31:13.438Z,100378.31
2022-12-31T21:33:43.840Z,100381.59
2022-12-31T21:36:10.804Z,100390.44
2022-12-31T21:38:37.640Z,100370.13
2022-12-31T21:41:06.190Z,100392.28
2022-12-31T21:43:33.332Z,100378.47
2022-12-31T21:46:04.507Z,100371.78
2022-12-31T21:48:31.605Z,100384.78
2022-12-31T21:51:14.127Z,100386.47
2022-12-31T21:53:40.827Z,100386.28
2022-12-31T21:56:09.375Z,100372.47
2022-12-31T21:58:38.832Z,100378.09
2022-12-31T22:01:24.704Z,100398.78
2022-12-31T22:03:51.640Z,100384.94
2022-12-31T22:06:23.341Z,100369.78
2022-12-31T22:08:52.234Z,100409.91
2022-12-31T22:11:21.098Z,100400.09
2022-12-31T22:13:48.449Z,100410.44
2022-12-31T22:16:15.486Z,100409.44
2022-12-31T22:18:44.032Z,100399.94
2022-12-31T22:21:18.743Z,100396.13
2022-12-31T22:23:52.490Z,100435.06
2022-12-31T22:26:21.680Z,100396.44
2022-12-31T22:28:48.564Z,100435.41
2022-12-31T22:31:20.179Z,100432.06
2022-12-31T22:33:47.922Z,100434.06
2022-12-31T22:36:17.700Z,100412.09
2022-12-31T22:38:45.097Z,100428.41
2022-12-31T22:41:21.586Z,100428.56
2022-12-31T22:43:51.260Z,100427.72
2022-12-31T22:46:21.065Z,100437.75
2022-12-31T22:48:48.413Z,100441.91
2022-12-31T22:51:16.296Z,100434.75
2022-12-31T22:53:43.602Z,100428.41
2022-12-31T22:56:12.847Z,100435.88
2022-12-31T22:58:39.957Z,100448.06
2022-12-31T23:01:14.298Z,100441.72
2022-12-31T23:03:42.094Z,100421.94
2022-12-31T23:06:08.852Z,100422.41
2022-12-31T23:08:35.565Z,100438.38
2022-12-31T23:11:09.771Z,100448.06
2022-12-31T23:13:59.762Z,100435.09
2022-12-31T23:16:47.925Z,100441.41
2022-12-31T23:19:34.643Z,100429.75
2022-12-31T23:22:19.939Z,100444.41
2022-12-31T23:24:46.697Z,100457.72
2022-12-31T23:27:13.488Z,100455.38
2022-12-31T23:29:46.657Z,100456.38
2022-12-31T23:32:17.566Z,100468.53
2022-12-31T23:34:46.089Z,100448.56
2022-12-31T23:37:14.423Z,100458.06
2022-12-31T23:39:41.621Z,100430.59
2022-12-31T23:42:08.608Z,100451.41
2022-12-31T23:44:35.729Z,100472.06
2022-12-31T23:47:02.665Z,100479.06
2022-12-31T23:49:29.431Z,100470.72
2022-12-31T23:51:56.071Z,100478.38
2022-12-31T23:54:22.785Z,100487.34
2022-12-31T23:56:49.513Z,100494.69
2022-12-31T23:59:16.269Z,100488.66
